sensor_id;sensor_type;location;lat;lon;timestamp;P1;durP1;ratioP1;P2;durP2;ratioP2
22234;SDS011;11286;45.596;5.284;2022-10-31T00:01:56;15.95;;;9.60;;
22234;SDS011;11286;45.596;5.284;2022-10-31T00:04:21;20.05;;;10.05;;
22234;SDS011;11286;45.596;5.284;2022-10-31T00:06:47;17.88;;;9.77;;
22234;SDS011;11286;45.596;5.284;2022-10-31T00:09:13;18.25;;;9.57;;
22234;SDS011;11286;45.596;5.284;2022-10-31T00:11:38;15.55;;;9.65;;
22234;SDS011;11286;45.596;5.284;2022-10-31T00:14:04;16.17;;;9.68;;
22234;SDS011;11286;45.596;5.284;2022-10-31T00:16:30;15.07;;;9.57;;
22234;SDS011;11286;45.596;5.284;2022-10-31T00:18:57;19.48;;;10.05;;
22234;SDS011;11286;45.596;5.284;2022-10-31T00:21:24;18.83;;;9.63;;
22234;SDS011;11286;45.596;5.284;2022-10-31T00:23:50;17.98;;;9.55;;
22234;SDS011;11286;45.596;5.284;2022-10-31T00:26:16;18.67;;;9.73;;
22234;SDS011;11286;45.596;5.284;2022-10-31T00:28:42;17.08;;;9.60;;
22234;SDS011;11286;45.596;5.284;2022-10-31T00:31:08;14.98;;;9.43;;
22234;SDS011;11286;45.596;5.284;2022-10-31T00:33:36;17.27;;;9.35;;
22234;SDS011;11286;45.596;5.284;2022-10-31T00:36:03;16.77;;;9.73;;
22234;SDS011;11286;45.596;5.284;2022-10-31T00:38:29;16.90;;;9.25;;
22234;SDS011;11286;45.596;5.284;2022-10-31T00:40:55;22.48;;;10.52;;
22234;SDS011;11286;45.596;5.284;2022-10-31T00:43:21;19.58;;;9.82;;
22234;SDS011;11286;45.596;5.284;2022-10-31T00:45:46;16.05;;;10.18;;
22234;SDS011;11286;45.596;5.284;2022-10-31T00:48:12;18.05;;;9.70;;
22234;SDS011;11286;45.596;5.284;2022-10-31T00:50:38;24.13;;;10.48;;
22234;SDS011;11286;45.596;5.284;2022-10-31T00:53:04;22.08;;;10.27;;
22234;SDS011;11286;45.596;5.284;2022-10-31T00:55:30;19.38;;;9.70;;
22234;SDS011;11286;45.596;5.284;2022-10-31T00:57:55;19.70;;;9.52;;
22234;SDS011;11286;45.596;5.284;2022-10-31T01:00:21;19.77;;;10.20;;
22234;SDS011;11286;45.596;5.284;2022-10-31T01:02:47;20.27;;;10.25;;
22234;SDS011;11286;45.596;5.284;2022-10-31T01:05:13;17.65;;;10.77;;
22234;SDS011;11286;45.596;5.284;2022-10-31T01:07:39;19.20;;;10.13;;
22234;SDS011;11286;45.596;5.284;2022-10-31T01:10:06;20.02;;;10.25;;
22234;SDS011;11286;45.596;5.284;2022-10-31T01:12:39;19.73;;;10.55;;
22234;SDS011;11286;45.596;5.284;2022-10-31T01:15:10;17.05;;;10.60;;
22234;SDS011;11286;45.596;5.284;2022-10-31T01:17:37;19.38;;;10.23;;
22234;SDS011;11286;45.596;5.284;2022-10-31T01:20:04;20.88;;;10.35;;
22234;SDS011;11286;45.596;5.284;2022-10-31T01:22:32;21.05;;;11.07;;
22234;SDS011;11286;45.596;5.284;2022-10-31T01:24:58;16.58;;;9.93;;
22234;SDS011;11286;45.596;5.284;2022-10-31T01:27:23;22.50;;;9.93;;
22234;SDS011;11286;45.596;5.284;2022-10-31T01:29:49;19.48;;;10.05;;
22234;SDS011;11286;45.596;5.284;2022-10-31T01:32:15;19.90;;;10.65;;
22234;SDS011;11286;45.596;5.284;2022-10-31T01:34:40;20.40;;;10.77;;
22234;SDS011;11286;45.596;5.284;2022-10-31T01:37:06;23.42;;;10.45;;
22234;SDS011;11286;45.596;5.284;2022-10-31T01:39:31;21.25;;;10.95;;
22234;SDS011;11286;45.596;5.284;2022-10-31T01:41:57;21.58;;;10.82;;
22234;SDS011;11286;45.596;5.284;2022-10-31T01:47:03;19.45;;;10.98;;
22234;SDS011;11286;45.596;5.284;2022-10-31T01:49:51;20.45;;;10.00;;
22234;SDS011;11286;45.596;5.284;2022-10-31T01:55:05;20.50;;;11.00;;
22234;SDS011;11286;45.596;5.284;2022-10-31T01:57:50;20.08;;;10.35;;
22234;SDS011;11286;45.596;5.284;2022-10-31T02:00:19;18.65;;;11.20;;
22234;SDS011;11286;45.596;5.284;2022-10-31T02:02:45;16.77;;;10.38;;
22234;SDS011;11286;45.596;5.284;2022-10-31T02:05:14;18.15;;;10.52;;
22234;SDS011;11286;45.596;5.284;2022-10-31T02:07:44;19.50;;;10.65;;
22234;SDS011;11286;45.596;5.284;2022-10-31T02:10:14;19.00;;;10.43;;
22234;SDS011;11286;45.596;5.284;2022-10-31T02:12:40;18.25;;;10.82;;
22234;SDS011;11286;45.596;5.284;2022-10-31T02:15:06;20.17;;;10.13;;
22234;SDS011;11286;45.596;5.284;2022-10-31T02:17:33;20.77;;;10.45;;
22234;SDS011;11286;45.596;5.284;2022-10-31T02:31:31;19.60;;;10.60;;
22234;SDS011;11286;45.596;5.284;2022-10-31T02:34:00;20.15;;;10.80;;
22234;SDS011;11286;45.596;5.284;2022-10-31T02:36:41;27.05;;;10.80;;
22234;SDS011;11286;45.596;5.284;2022-10-31T02:39:25;21.25;;;10.65;;
22234;SDS011;11286;45.596;5.284;2022-10-31T02:42:07;24.75;;;11.32;;
22234;SDS011;11286;45.596;5.284;2022-10-31T02:44:44;23.77;;;11.30;;
22234;SDS011;11286;45.596;5.284;2022-10-31T02:47:25;20.92;;;11.20;;
22234;SDS011;11286;45.596;5.284;2022-10-31T02:49:56;18.73;;;10.65;;
22234;SDS011;11286;45.596;5.284;2022-10-31T02:52:52;19.67;;;10.93;;
22234;SDS011;11286;45.596;5.284;2022-10-31T02:58:05;19.85;;;11.15;;
22234;SDS011;11286;45.596;5.284;2022-10-31T03:00:52;18.15;;;11.50;;
22234;SDS011;11286;45.596;5.284;2022-10-31T03:17:05;22.40;;;11.32;;
22234;SDS011;11286;45.596;5.284;2022-10-31T03:19:39;17.27;;;11.07;;
22234;SDS011;11286;45.596;5.284;2022-10-31T03:22:10;20.10;;;11.45;;
22234;SDS011;11286;45.596;5.284;2022-10-31T03:24:42;18.90;;;11.13;;
22234;SDS011;11286;45.596;5.284;2022-10-31T03:27:10;17.85;;;10.43;;
22234;SDS011;11286;45.596;5.284;2022-10-31T03:29:37;17.70;;;11.02;;
22234;SDS011;11286;45.596;5.284;2022-10-31T03:32:17;20.15;;;10.38;;
22234;SDS011;11286;45.596;5.284;2022-10-31T03:35:03;17.15;;;10.73;;
22234;SDS011;11286;45.596;5.284;2022-10-31T03:37:32;21.95;;;11.30;;
22234;SDS011;11286;45.596;5.284;2022-10-31T03:40:00;18.13;;;10.82;;
22234;SDS011;11286;45.596;5.284;2022-10-31T03:42:29;20.55;;;11.48;;
22234;SDS011;11286;45.596;5.284;2022-10-31T03:44:58;24.65;;;11.35;;
22234;SDS011;11286;45.596;5.284;2022-10-31T03:47:37;19.23;;;10.85;;
22234;SDS011;11286;45.596;5.284;2022-10-31T03:50:07;23.70;;;11.18;;
22234;SDS011;11286;45.596;5.284;2022-10-31T03:52:36;18.75;;;9.75;;
22234;SDS011;11286;45.596;5.284;2022-10-31T03:55:14;22.70;;;10.52;;
22234;SDS011;11286;45.596;5.284;2022-10-31T03:57:54;18.70;;;9.43;;
22234;SDS011;11286;45.596;5.284;2022-10-31T04:00:27;17.67;;;8.90;;
22234;SDS011;11286;45.596;5.284;2022-10-31T04:03:09;22.52;;;9.30;;
22234;SDS011;11286;45.596;5.284;2022-10-31T04:05:40;19.02;;;9.38;;
22234;SDS011;11286;45.596;5.284;2022-10-31T04:08:10;20.17;;;9.60;;
22234;SDS011;11286;45.596;5.284;2022-10-31T04:10:40;25.75;;;10.13;;
22234;SDS011;11286;45.596;5.284;2022-10-31T04:13:13;19.88;;;9.82;;
22234;SDS011;11286;45.596;5.284;2022-10-31T04:15:41;17.52;;;9.68;;
22234;SDS011;11286;45.596;5.284;2022-10-31T04:18:08;18.90;;;10.52;;
22234;SDS011;11286;45.596;5.284;2022-10-31T04:20:35;21.83;;;10.45;;
22234;SDS011;11286;45.596;5.284;2022-10-31T04:23:02;18.33;;;10.40;;
22234;SDS011;11286;45.596;5.284;2022-10-31T04:25:30;16.40;;;10.05;;
22234;SDS011;11286;45.596;5.284;2022-10-31T04:27:56;19.20;;;10.30;;
22234;SDS011;11286;45.596;5.284;2022-10-31T04:30:21;19.67;;;10.32;;
22234;SDS011;11286;45.596;5.284;2022-10-31T04:32:47;17.73;;;10.18;;
22234;SDS011;11286;45.596;5.284;2022-10-31T04:35:12;20.00;;;10.52;;
22234;SDS011;11286;45.596;5.284;2022-10-31T04:37:38;18.25;;;10.43;;
22234;SDS011;11286;45.596;5.284;2022-10-31T04:40:04;25.13;;;10.13;;
22234;SDS011;11286;45.596;5.284;2022-10-31T04:42:30;19.83;;;10.25;;
22234;SDS011;11286;45.596;5.284;2022-10-31T04:44:56;17.25;;;9.82;;
22234;SDS011;11286;45.596;5.284;2022-10-31T04:47:22;21.38;;;10.00;;
22234;SDS011;11286;45.596;5.284;2022-10-31T04:49:47;19.10;;;10.43;;
22234;SDS011;11286;45.596;5.284;2022-10-31T04:52:13;19.10;;;10.27;;
22234;SDS011;11286;45.596;5.284;2022-10-31T04:54:39;21.33;;;10.82;;
22234;SDS011;11286;45.596;5.284;2022-10-31T04:57:04;18.38;;;10.68;;
22234;SDS011;11286;45.596;5.284;2022-10-31T04:59:30;16.70;;;10.95;;
22234;SDS011;11286;45.596;5.284;2022-10-31T05:01:55;20.05;;;11.18;;
22234;SDS011;11286;45.596;5.284;2022-10-31T05:04:21;22.75;;;11.40;;
22234;SDS011;11286;45.596;5.284;2022-10-31T05:06:47;20.13;;;10.63;;
22234;SDS011;11286;45.596;5.284;2022-10-31T05:09:12;19.70;;;10.13;;
22234;SDS011;11286;45.596;5.284;2022-10-31T05:11:38;20.48;;;10.23;;
22234;SDS011;11286;45.596;5.284;2022-10-31T05:14:04;21.55;;;10.77;;
22234;SDS011;11286;45.596;5.284;2022-10-31T05:16:29;20.52;;;10.20;;
22234;SDS011;11286;45.596;5.284;2022-10-31T05:18:55;22.70;;;10.15;;
22234;SDS011;11286;45.596;5.284;2022-10-31T05:21:20;20.45;;;10.55;;
22234;SDS011;11286;45.596;5.284;2022-10-31T05:23:46;16.45;;;10.25;;
22234;SDS011;11286;45.596;5.284;2022-10-31T05:26:12;20.05;;;9.82;;
22234;SDS011;11286;45.596;5.284;2022-10-31T05:28:37;19.75;;;10.38;;
22234;SDS011;11286;45.596;5.284;2022-10-31T05:31:03;18.75;;;9.88;;
22234;SDS011;11286;45.596;5.284;2022-10-31T05:33:29;17.90;;;10.02;;
22234;SDS011;11286;45.596;5.284;2022-10-31T05:35:54;18.52;;;10.23;;
22234;SDS011;11286;45.596;5.284;2022-10-31T05:38:20;18.80;;;10.18;;
22234;SDS011;11286;45.596;5.284;2022-10-31T05:40:45;23.05;;;11.00;;
22234;SDS011;11286;45.596;5.284;2022-10-31T05:43:11;21.60;;;10.82;;
22234;SDS011;11286;45.596;5.284;2022-10-31T05:45:37;19.83;;;10.73;;
22234;SDS011;11286;45.596;5.284;2022-10-31T05:48:02;20.45;;;10.85;;
22234;SDS011;11286;45.596;5.284;2022-10-31T05:50:29;23.75;;;10.98;;
22234;SDS011;11286;45.596;5.284;2022-10-31T05:52:59;19.35;;;10.98;;
22234;SDS011;11286;45.596;5.284;2022-10-31T05:55:27;20.00;;;10.23;;
22234;SDS011;11286;45.596;5.284;2022-10-31T05:57:53;16.02;;;11.02;;
22234;SDS011;11286;45.596;5.284;2022-10-31T06:00:20;21.38;;;11.23;;
22234;SDS011;11286;45.596;5.284;2022-10-31T06:02:46;20.27;;;10.25;;
22234;SDS011;11286;45.596;5.284;2022-10-31T06:05:12;19.70;;;10.77;;
22234;SDS011;11286;45.596;5.284;2022-10-31T06:07:38;26.15;;;11.90;;
22234;SDS011;11286;45.596;5.284;2022-10-31T06:10:05;27.35;;;11.68;;
22234;SDS011;11286;45.596;5.284;2022-10-31T06:12:31;16.65;;;10.82;;
22234;SDS011;11286;45.596;5.284;2022-10-31T06:15:03;15.85;;;10.35;;
22234;SDS011;11286;45.596;5.284;2022-10-31T06:17:35;17.90;;;10.73;;
22234;SDS011;11286;45.596;5.284;2022-10-31T06:20:01;21.13;;;11.23;;
22234;SDS011;11286;45.596;5.284;2022-10-31T06:22:28;20.23;;;11.68;;
22234;SDS011;11286;45.596;5.284;2022-10-31T06:24:54;20.05;;;11.35;;
22234;SDS011;11286;45.596;5.284;2022-10-31T06:27:20;16.05;;;10.77;;
22234;SDS011;11286;45.596;5.284;2022-10-31T06:29:46;18.50;;;11.63;;
22234;SDS011;11286;45.596;5.284;2022-10-31T06:32:11;21.20;;;11.88;;
22234;SDS011;11286;45.596;5.284;2022-10-31T06:34:38;22.58;;;11.50;;
22234;SDS011;11286;45.596;5.284;2022-10-31T06:37:08;26.35;;;11.82;;
22234;SDS011;11286;45.596;5.284;2022-10-31T06:39:34;17.65;;;11.43;;
22234;SDS011;11286;45.596;5.284;2022-10-31T06:42:00;17.38;;;10.80;;
22234;SDS011;11286;45.596;5.284;2022-10-31T06:44:26;22.48;;;11.32;;
22234;SDS011;11286;45.596;5.284;2022-10-31T06:46:52;21.45;;;11.05;;
22234;SDS011;11286;45.596;5.284;2022-10-31T06:49:17;19.08;;;12.10;;
22234;SDS011;11286;45.596;5.284;2022-10-31T06:51:43;20.63;;;11.05;;
22234;SDS011;11286;45.596;5.284;2022-10-31T06:54:12;19.40;;;11.18;;
22234;SDS011;11286;45.596;5.284;2022-10-31T06:56:38;19.40;;;10.90;;
22234;SDS011;11286;45.596;5.284;2022-10-31T06:59:04;19.27;;;11.23;;
22234;SDS011;11286;45.596;5.284;2022-10-31T07:01:29;17.02;;;10.40;;
22234;SDS011;11286;45.596;5.284;2022-10-31T07:03:55;20.63;;;10.65;;
22234;SDS011;11286;45.596;5.284;2022-10-31T07:06:20;20.73;;;11.68;;
22234;SDS011;11286;45.596;5.284;2022-10-31T07:08:46;18.73;;;10.82;;
22234;SDS011;11286;45.596;5.284;2022-10-31T07:11:12;17.95;;;10.50;;
22234;SDS011;11286;45.596;5.284;2022-10-31T07:13:38;17.13;;;10.60;;
22234;SDS011;11286;45.596;5.284;2022-10-31T07:16:04;17.40;;;10.68;;
22234;SDS011;11286;45.596;5.284;2022-10-31T07:18:31;22.30;;;11.43;;
22234;SDS011;11286;45.596;5.284;2022-10-31T07:20:57;17.88;;;11.13;;
22234;SDS011;11286;45.596;5.284;2022-10-31T07:23:23;13.57;;;10.35;;
22234;SDS011;11286;45.596;5.284;2022-10-31T07:25:54;16.38;;;10.60;;
22234;SDS011;11286;45.596;5.284;2022-10-31T07:28:23;21.85;;;10.60;;
22234;SDS011;11286;45.596;5.284;2022-10-31T07:30:51;19.77;;;11.23;;
22234;SDS011;11286;45.596;5.284;2022-10-31T07:33:17;19.27;;;10.73;;
22234;SDS011;11286;45.596;5.284;2022-10-31T07:35:43;21.90;;;10.57;;
22234;SDS011;11286;45.596;5.284;2022-10-31T07:38:09;17.17;;;10.82;;
22234;SDS011;11286;45.596;5.284;2022-10-31T07:40:36;16.15;;;10.73;;
22234;SDS011;11286;45.596;5.284;2022-10-31T07:43:02;17.90;;;10.88;;
22234;SDS011;11286;45.596;5.284;2022-10-31T07:45:27;16.33;;;10.70;;
22234;SDS011;11286;45.596;5.284;2022-10-31T07:47:53;19.10;;;10.60;;
22234;SDS011;11286;45.596;5.284;2022-10-31T07:50:20;21.45;;;10.82;;
22234;SDS011;11286;45.596;5.284;2022-10-31T07:52:47;17.05;;;10.20;;
22234;SDS011;11286;45.596;5.284;2022-10-31T07:55:22;17.08;;;10.10;;
22234;SDS011;11286;45.596;5.284;2022-10-31T07:57:54;17.60;;;10.18;;
22234;SDS011;11286;45.596;5.284;2022-10-31T08:00:24;18.10;;;9.43;;
22234;SDS011;11286;45.596;5.284;2022-10-31T08:02:57;18.00;;;10.55;;
22234;SDS011;11286;45.596;5.284;2022-10-31T08:05:27;21.25;;;10.88;;
22234;SDS011;11286;45.596;5.284;2022-10-31T08:07:53;13.90;;;8.77;;
22234;SDS011;11286;45.596;5.284;2022-10-31T08:10:19;14.23;;;9.32;;
22234;SDS011;11286;45.596;5.284;2022-10-31T08:12:46;17.38;;;10.30;;
22234;SDS011;11286;45.596;5.284;2022-10-31T08:15:12;17.63;;;9.55;;
22234;SDS011;11286;45.596;5.284;2022-10-31T08:17:38;20.85;;;9.80;;
22234;SDS011;11286;45.596;5.284;2022-10-31T08:20:04;17.60;;;10.30;;
22234;SDS011;11286;45.596;5.284;2022-10-31T08:22:31;18.23;;;10.02;;
22234;SDS011;11286;45.596;5.284;2022-10-31T08:24:56;18.30;;;10.05;;
22234;SDS011;11286;45.596;5.284;2022-10-31T08:27:22;16.10;;;8.82;;
22234;SDS011;11286;45.596;5.284;2022-10-31T08:29:47;13.85;;;9.10;;
22234;SDS011;11286;45.596;5.284;2022-10-31T08:32:13;16.80;;;8.80;;
22234;SDS011;11286;45.596;5.284;2022-10-31T08:34:39;22.30;;;9.30;;
22234;SDS011;11286;45.596;5.284;2022-10-31T08:37:04;20.17;;;9.38;;
22234;SDS011;11286;45.596;5.284;2022-10-31T08:39:30;21.67;;;9.45;;
22234;SDS011;11286;45.596;5.284;2022-10-31T08:41:55;19.35;;;9.70;;
22234;SDS011;11286;45.596;5.284;2022-10-31T08:44:21;18.58;;;9.65;;
22234;SDS011;11286;45.596;5.284;2022-10-31T08:46:46;18.92;;;9.68;;
22234;SDS011;11286;45.596;5.284;2022-10-31T08:49:12;17.95;;;9.57;;
22234;SDS011;11286;45.596;5.284;2022-10-31T08:51:38;19.73;;;9.40;;
22234;SDS011;11286;45.596;5.284;2022-10-31T08:54:03;19.13;;;10.02;;
22234;SDS011;11286;45.596;5.284;2022-10-31T08:56:29;16.30;;;8.80;;
22234;SDS011;11286;45.596;5.284;2022-10-31T08:58:55;17.63;;;8.95;;
22234;SDS011;11286;45.596;5.284;2022-10-31T09:01:21;18.48;;;8.85;;
22234;SDS011;11286;45.596;5.284;2022-10-31T09:03:46;15.10;;;7.95;;
22234;SDS011;11286;45.596;5.284;2022-10-31T09:06:12;16.83;;;8.13;;
22234;SDS011;11286;45.596;5.284;2022-10-31T09:08:37;15.10;;;8.40;;
22234;SDS011;11286;45.596;5.284;2022-10-31T09:11:03;19.52;;;8.60;;
22234;SDS011;11286;45.596;5.284;2022-10-31T09:13:31;22.23;;;8.93;;
22234;SDS011;11286;45.596;5.284;2022-10-31T09:15:57;14.65;;;8.18;;
22234;SDS011;11286;45.596;5.284;2022-10-31T09:18:25;20.10;;;8.30;;
22234;SDS011;11286;45.596;5.284;2022-10-31T09:20:56;12.48;;;7.75;;
22234;SDS011;11286;45.596;5.284;2022-10-31T09:23:23;18.73;;;12.25;;
22234;SDS011;11286;45.596;5.284;2022-10-31T09:25:49;16.23;;;7.90;;
22234;SDS011;11286;45.596;5.284;2022-10-31T09:28:17;16.65;;;8.05;;
22234;SDS011;11286;45.596;5.284;2022-10-31T09:30:48;17.48;;;7.38;;
22234;SDS011;11286;45.596;5.284;2022-10-31T09:33:15;17.77;;;8.48;;
22234;SDS011;11286;45.596;5.284;2022-10-31T09:35:41;16.88;;;8.05;;
22234;SDS011;11286;45.596;5.284;2022-10-31T09:38:14;17.15;;;7.95;;
22234;SDS011;11286;45.596;5.284;2022-10-31T09:48:49;16.30;;;7.43;;
22234;SDS011;11286;45.596;5.284;2022-10-31T09:51:25;15.80;;;7.22;;
22234;SDS011;11286;45.596;5.284;2022-10-31T09:56:34;19.85;;;7.97;;
22234;SDS011;11286;45.596;5.284;2022-10-31T09:59:01;15.65;;;7.75;;
22234;SDS011;11286;45.596;5.284;2022-10-31T10:02:04;15.93;;;7.78;;
22234;SDS011;11286;45.596;5.284;2022-10-31T10:06:58;14.18;;;6.60;;
22234;SDS011;11286;45.596;5.284;2022-10-31T10:09:44;15.80;;;7.18;;
22234;SDS011;11286;45.596;5.284;2022-10-31T10:18:09;14.43;;;6.88;;
22234;SDS011;11286;45.596;5.284;2022-10-31T10:24:19;14.55;;;6.13;;
22234;SDS011;11286;45.596;5.284;2022-10-31T10:32:23;14.18;;;6.05;;
22234;SDS011;11286;45.596;5.284;2022-10-31T10:34:53;17.30;;;5.68;;
22234;SDS011;11286;45.596;5.284;2022-10-31T10:37:38;18.52;;;7.75;;
22234;SDS011;11286;45.596;5.284;2022-10-31T10:40:11;16.85;;;5.40;;
22234;SDS011;11286;45.596;5.284;2022-10-31T10:42:50;13.85;;;5.72;;
22234;SDS011;11286;45.596;5.284;2022-10-31T10:45:37;17.25;;;6.65;;
22234;SDS011;11286;45.596;5.284;2022-10-31T10:48:29;10.30;;;4.82;;
22234;SDS011;11286;45.596;5.284;2022-10-31T10:50:56;13.02;;;7.38;;
22234;SDS011;11286;45.596;5.284;2022-10-31T10:53:30;15.70;;;6.20;;
22234;SDS011;11286;45.596;5.284;2022-10-31T10:56:16;13.73;;;5.93;;
22234;SDS011;11286;45.596;5.284;2022-10-31T10:58:47;11.95;;;5.50;;
22234;SDS011;11286;45.596;5.284;2022-10-31T11:01:13;15.65;;;5.60;;
22234;SDS011;11286;45.596;5.284;2022-10-31T11:03:40;16.67;;;5.38;;
22234;SDS011;11286;45.596;5.284;2022-10-31T11:06:16;13.75;;;5.68;;
22234;SDS011;11286;45.596;5.284;2022-10-31T11:08:50;12.02;;;4.90;;
22234;SDS011;11286;45.596;5.284;2022-10-31T11:13:42;14.70;;;5.30;;
22234;SDS011;11286;45.596;5.284;2022-10-31T11:16:12;13.38;;;5.28;;
22234;SDS011;11286;45.596;5.284;2022-10-31T11:18:54;16.33;;;5.75;;
22234;SDS011;11286;45.596;5.284;2022-10-31T11:21:51;11.07;;;5.50;;
22234;SDS011;11286;45.596;5.284;2022-10-31T11:24:21;16.10;;;5.60;;
22234;SDS011;11286;45.596;5.284;2022-10-31T11:27:02;10.88;;;5.70;;
22234;SDS011;11286;45.596;5.284;2022-10-31T11:29:39;14.77;;;5.35;;
22234;SDS011;11286;45.596;5.284;2022-10-31T11:32:05;10.85;;;5.47;;
22234;SDS011;11286;45.596;5.284;2022-10-31T11:34:56;14.05;;;6.00;;
22234;SDS011;11286;45.596;5.284;2022-10-31T11:37:26;13.82;;;5.43;;
22234;SDS011;11286;45.596;5.284;2022-10-31T11:40:00;14.20;;;5.28;;
22234;SDS011;11286;45.596;5.284;2022-10-31T11:42:30;17.33;;;5.75;;
22234;SDS011;11286;45.596;5.284;2022-10-31T11:45:12;10.32;;;5.03;;
22234;SDS011;11286;45.596;5.284;2022-10-31T11:47:41;11.85;;;5.03;;
22234;SDS011;11286;45.596;5.284;2022-10-31T11:50:18;10.60;;;5.07;;
22234;SDS011;11286;45.596;5.284;2022-10-31T11:52:46;14.55;;;4.72;;
22234;SDS011;11286;45.596;5.284;2022-10-31T11:55:14;13.00;;;5.30;;
22234;SDS011;11286;45.596;5.284;2022-10-31T11:58:01;14.00;;;4.88;;
22234;SDS011;11286;45.596;5.284;2022-10-31T12:00:31;15.27;;;5.38;;
22234;SDS011;11286;45.596;5.284;2022-10-31T12:06:15;16.17;;;4.72;;
22234;SDS011;11286;45.596;5.284;2022-10-31T12:08:45;13.65;;;5.03;;
22234;SDS011;11286;45.596;5.284;2022-10-31T12:11:31;14.35;;;5.45;;
22234;SDS011;11286;45.596;5.284;2022-10-31T12:17:20;13.05;;;4.82;;
22234;SDS011;11286;45.596;5.284;2022-10-31T12:30:21;13.13;;;4.85;;
22234;SDS011;11286;45.596;5.284;2022-10-31T12:35:24;13.02;;;5.18;;
22234;SDS011;11286;45.596;5.284;2022-10-31T12:38:30;10.52;;;4.30;;
22234;SDS011;11286;45.596;5.284;2022-10-31T12:49:16;11.80;;;4.43;;
22234;SDS011;11286;45.596;5.284;2022-10-31T12:57:32;12.38;;;5.18;;
22234;SDS011;11286;45.596;5.284;2022-10-31T13:05:36;16.35;;;5.03;;
22234;SDS011;11286;45.596;5.284;2022-10-31T13:13:43;11.02;;;4.85;;
22234;SDS011;11286;45.596;5.284;2022-10-31T13:16:34;12.40;;;4.72;;
22234;SDS011;11286;45.596;5.284;2022-10-31T13:22:16;13.80;;;5.25;;
22234;SDS011;11286;45.596;5.284;2022-10-31T13:27:24;13.75;;;5.05;;
22234;SDS011;11286;45.596;5.284;2022-10-31T13:30:15;12.85;;;4.40;;
22234;SDS011;11286;45.596;5.284;2022-10-31T13:32:47;11.73;;;4.47;;
22234;SDS011;11286;45.596;5.284;2022-10-31T13:35:25;13.77;;;4.60;;
22234;SDS011;11286;45.596;5.284;2022-10-31T13:40:44;9.75;;;4.43;;
22234;SDS011;11286;45.596;5.284;2022-10-31T13:45:54;9.82;;;4.28;;
22234;SDS011;11286;45.596;5.284;2022-10-31T13:48:39;12.95;;;4.40;;
22234;SDS011;11286;45.596;5.284;2022-10-31T13:51:08;12.80;;;4.10;;
22234;SDS011;11286;45.596;5.284;2022-10-31T13:53:36;9.55;;;3.92;;
22234;SDS011;11286;45.596;5.284;2022-10-31T13:56:23;8.85;;;3.72;;
22234;SDS011;11286;45.596;5.284;2022-10-31T14:01:31;11.10;;;4.35;;
22234;SDS011;11286;45.596;5.284;2022-10-31T14:04:02;13.82;;;4.47;;
22234;SDS011;11286;45.596;5.284;2022-10-31T14:06:41;10.52;;;3.72;;
22234;SDS011;11286;45.596;5.284;2022-10-31T14:11:48;12.38;;;4.00;;
22234;SDS011;11286;45.596;5.284;2022-10-31T14:14:15;12.57;;;4.45;;
22234;SDS011;11286;45.596;5.284;2022-10-31T14:16:42;11.07;;;3.75;;
22234;SDS011;11286;45.596;5.284;2022-10-31T14:19:15;11.98;;;3.65;;
22234;SDS011;11286;45.596;5.284;2022-10-31T14:21:44;12.32;;;3.80;;
22234;SDS011;11286;45.596;5.284;2022-10-31T14:24:15;10.88;;;3.90;;
22234;SDS011;11286;45.596;5.284;2022-10-31T14:27:00;12.85;;;4.07;;
22234;SDS011;11286;45.596;5.284;2022-10-31T14:29:32;12.10;;;3.72;;
22234;SDS011;11286;45.596;5.284;2022-10-31T14:32:04;13.02;;;4.13;;
22234;SDS011;11286;45.596;5.284;2022-10-31T14:34:52;11.55;;;4.22;;
22234;SDS011;11286;45.596;5.284;2022-10-31T14:37:29;8.38;;;3.60;;
22234;SDS011;11286;45.596;5.284;2022-10-31T14:42:47;13.27;;;4.05;;
22234;SDS011;11286;45.596;5.284;2022-10-31T14:45:32;13.63;;;3.83;;
22234;SDS011;11286;45.596;5.284;2022-10-31T14:50:56;8.30;;;3.47;;
22234;SDS011;11286;45.596;5.284;2022-10-31T14:53:36;10.70;;;4.30;;
22234;SDS011;11286;45.596;5.284;2022-10-31T14:56:12;14.50;;;3.72;;
22234;SDS011;11286;45.596;5.284;2022-10-31T14:58:45;9.80;;;4.00;;
22234;SDS011;11286;45.596;5.284;2022-10-31T15:01:26;10.75;;;3.97;;
22234;SDS011;11286;45.596;5.284;2022-10-31T15:06:47;11.63;;;3.70;;
22234;SDS011;11286;45.596;5.284;2022-10-31T15:09:23;14.40;;;4.18;;
22234;SDS011;11286;45.596;5.284;2022-10-31T15:12:00;12.10;;;4.22;;
22234;SDS011;11286;45.596;5.284;2022-10-31T15:14:39;8.02;;;3.60;;
22234;SDS011;11286;45.596;5.284;2022-10-31T15:17:05;10.80;;;4.03;;
22234;SDS011;11286;45.596;5.284;2022-10-31T15:19:30;11.10;;;3.97;;
22234;SDS011;11286;45.596;5.284;2022-10-31T15:21:58;12.38;;;3.67;;
22234;SDS011;11286;45.596;5.284;2022-10-31T15:24:29;13.48;;;4.53;;
22234;SDS011;11286;45.596;5.284;2022-10-31T15:26:59;10.73;;;3.60;;
22234;SDS011;11286;45.596;5.284;2022-10-31T15:29:25;12.50;;;3.67;;
22234;SDS011;11286;45.596;5.284;2022-10-31T15:36:55;9.88;;;3.95;;
22234;SDS011;11286;45.596;5.284;2022-10-31T15:39:20;9.63;;;3.97;;
22234;SDS011;11286;45.596;5.284;2022-10-31T15:44:17;11.30;;;4.32;;
22234;SDS011;11286;45.596;5.284;2022-10-31T15:49:31;12.23;;;5.18;;
22234;SDS011;11286;45.596;5.284;2022-10-31T15:52:15;18.40;;;4.60;;
22234;SDS011;11286;45.596;5.284;2022-10-31T15:54:52;8.32;;;3.80;;
22234;SDS011;11286;45.596;5.284;2022-10-31T15:57:20;12.02;;;4.53;;
22234;SDS011;11286;45.596;5.284;2022-10-31T15:59:51;15.95;;;5.00;;
22234;SDS011;11286;45.596;5.284;2022-10-31T16:02:18;13.95;;;4.50;;
22234;SDS011;11286;45.596;5.284;2022-10-31T16:04:50;12.25;;;4.18;;
22234;SDS011;11286;45.596;5.284;2022-10-31T16:07:18;10.27;;;4.57;;
22234;SDS011;11286;45.596;5.284;2022-10-31T16:10:03;10.43;;;4.20;;
22234;SDS011;11286;45.596;5.284;2022-10-31T16:12:34;11.02;;;4.55;;
22234;SDS011;11286;45.596;5.284;2022-10-31T16:15:01;13.77;;;4.60;;
22234;SDS011;11286;45.596;5.284;2022-10-31T16:17:29;13.02;;;4.60;;
22234;SDS011;11286;45.596;5.284;2022-10-31T16:19:59;15.40;;;4.75;;
22234;SDS011;11286;45.596;5.284;2022-10-31T16:22:28;15.93;;;4.68;;
22234;SDS011;11286;45.596;5.284;2022-10-31T16:27:25;12.20;;;4.22;;
22234;SDS011;11286;45.596;5.284;2022-10-31T16:29:54;14.07;;;4.47;;
22234;SDS011;11286;45.596;5.284;2022-10-31T16:37:38;12.20;;;4.70;;
22234;SDS011;11286;45.596;5.284;2022-10-31T16:40:05;11.70;;;4.20;;
22234;SDS011;11286;45.596;5.284;2022-10-31T16:42:31;10.93;;;4.38;;
22234;SDS011;11286;45.596;5.284;2022-10-31T16:44:58;13.85;;;4.65;;
22234;SDS011;11286;45.596;5.284;2022-10-31T16:47:24;10.95;;;4.70;;
22234;SDS011;11286;45.596;5.284;2022-10-31T16:49:50;14.50;;;4.68;;
22234;SDS011;11286;45.596;5.284;2022-10-31T16:52:16;12.52;;;5.35;;
22234;SDS011;11286;45.596;5.284;2022-10-31T16:54:42;11.73;;;4.53;;
22234;SDS011;11286;45.596;5.284;2022-10-31T16:57:10;16.80;;;4.63;;
22234;SDS011;11286;45.596;5.284;2022-10-31T16:59:39;13.95;;;4.50;;
22234;SDS011;11286;45.596;5.284;2022-10-31T17:02:06;18.60;;;4.60;;
22234;SDS011;11286;45.596;5.284;2022-10-31T17:04:39;16.70;;;4.97;;
22234;SDS011;11286;45.596;5.284;2022-10-31T17:07:05;17.92;;;5.32;;
22234;SDS011;11286;45.596;5.284;2022-10-31T17:09:30;11.60;;;4.45;;
22234;SDS011;11286;45.596;5.284;2022-10-31T17:11:56;11.98;;;5.00;;
22234;SDS011;11286;45.596;5.284;2022-10-31T17:14:22;13.00;;;4.78;;
22234;SDS011;11286;45.596;5.284;2022-10-31T17:16:48;14.25;;;5.03;;